sensor_id;sensor_type;location;lat;lon;timestamp;pressure;altitude;pressure_sealevel;temperature;humidity
71697;BME280;68167;59.120;37.898;2023-08-21T00:01:24;100296.78;;;14.06;69.91
71697;BME280;68167;59.120;37.898;2023-08-21T00:03:50;100280.72;;;13.96;70.07
71697;BME280;68167;59.120;37.898;2023-08-21T00:06:16;100311.00;;;14.11;70.23
71697;BME280;68167;59.120;37.898;2023-08-21T00:08:43;100317.94;;;14.12;70.71
71697;BME280;68167;59.120;37.898;2023-08-21T00:11:09;100275.34;;;13.80;70.50
71697;BME280;68167;59.120;37.898;2023-08-21T00:13:35;100317.94;;;14.02;70.66
71697;BME280;68167;59.120;37.898;2023-08-21T00:16:02;100284.44;;;13.84;70.88
71697;BME280;68167;59.120;37.898;2023-08-21T00:18:28;100272.66;;;13.75;70.97
71697;BME280;68167;59.120;37.898;2023-08-21T00:20:54;100304.28;;;13.94;70.92
71697;BME280;68167;59.120;37.898;2023-08-21T00:23:24;100307.22;;;13.97;71.14
71697;BME280;68167;59.120;37.898;2023-08-21T00:25:50;100307.22;;;13.97;71.42
71697;BME280;68167;59.120;37.898;2023-08-21T00:28:16;100309.63;;;13.99;71.46
71697;BME280;68167;59.120;37.898;2023-08-21T00:30:43;100291.44;;;13.91;71.56
71697;BME280;68167;59.120;37.898;2023-08-21T00:33:09;100299.19;;;13.87;71.27
71697;BME280;68167;59.120;37.898;2023-08-21T00:35:35;100300.25;;;13.91;71.24
71697;BME280;68167;59.120;37.898;2023-08-21T00:38:02;100311.78;;;13.97;71.64
71697;BME280;68167;59.120;37.898;2023-08-21T00:40:28;100296.75;;;13.80;71.37
71697;BME280;68167;59.120;37.898;2023-08-21T00:42:56;100298.38;;;13.81;71.30
71697;BME280;68167;59.120;37.898;2023-08-21T00:45:23;100274.28;;;13.61;71.69
71697;BME280;68167;59.120;37.898;2023-08-21T00:47:50;100301.81;;;13.67;71.72
71697;BME280;68167;59.120;37.898;2023-08-21T00:50:18;100302.38;;;13.64;71.72
71697;BME280;68167;59.120;37.898;2023-08-21T00:52:45;100310.91;;;13.66;71.80
71697;BME280;68167;59.120;37.898;2023-08-21T00:55:15;100306.66;;;13.65;72.47
71697;BME280;68167;59.120;37.898;2023-08-21T00:57:42;100307.19;;;13.62;72.90
71697;BME280;68167;59.120;37.898;2023-08-21T01:00:10;100316.53;;;13.64;72.41
71697;BME280;68167;59.120;37.898;2023-08-21T01:02:36;100243.94;;;13.20;72.38
71697;BME280;68167;59.120;37.898;2023-08-21T01:05:03;100245.53;;;13.21;72.68
71697;BME280;68167;59.120;37.898;2023-08-21T01:07:42;100292.97;;;13.51;72.03
71697;BME280;68167;59.120;37.898;2023-08-21T01:10:22;100303.94;;;13.49;72.05
71697;BME280;68167;59.120;37.898;2023-08-21T01:13:06;100312.47;;;13.46;71.58
71697;BME280;68167;59.120;37.898;2023-08-21T01:15:37;100305.75;;;13.39;72.81
71697;BME280;68167;59.120;37.898;2023-08-21T01:18:06;100317.53;;;13.43;72.72
71697;BME280;68167;59.120;37.898;2023-08-21T01:20:33;100316.47;;;13.39;72.77
71697;BME280;68167;59.120;37.898;2023-08-21T01:23:04;100249.72;;;12.97;72.93
71697;BME280;68167;59.120;37.898;2023-08-21T01:25:32;100301.72;;;13.31;73.70
71697;BME280;68167;59.120;37.898;2023-08-21T01:27:59;100275.47;;;13.18;73.39
71697;BME280;68167;59.120;37.898;2023-08-21T01:30:28;100274.66;;;13.17;73.57
71697;BME280;68167;59.120;37.898;2023-08-21T01:33:10;100256.16;;;13.11;73.37
71697;BME280;68167;59.120;37.898;2023-08-21T01:35:39;100275.16;;;13.14;73.75
71697;BME280;68167;59.120;37.898;2023-08-21T01:38:06;100269.22;;;13.07;73.83
71697;BME280;68167;59.120;37.898;2023-08-21T01:40:32;100312.94;;;13.28;73.90
71697;BME280;68167;59.120;37.898;2023-08-21T01:42:59;100314.53;;;13.24;73.67
71697;BME280;68167;59.120;37.898;2023-08-21T01:45:27;100258.72;;;12.85;73.75
71697;BME280;68167;59.120;37.898;2023-08-21T01:47:53;100274.00;;;12.90;73.99
71697;BME280;68167;59.120;37.898;2023-08-21T01:50:20;100229.22;;;12.60;73.90
71697;BME280;68167;59.120;37.898;2023-08-21T01:52:46;100323.84;;;13.16;73.84
71697;BME280;68167;59.120;37.898;2023-08-21T01:55:12;100279.59;;;12.89;74.03
71697;BME280;68167;59.120;37.898;2023-08-21T01:57:39;100309.88;;;13.09;74.27
71697;BME280;68167;59.120;37.898;2023-08-21T02:00:06;100320.59;;;13.14;74.42
71697;BME280;68167;59.120;37.898;2023-08-21T02:02:40;100305.59;;;13.08;74.15
71697;BME280;68167;59.120;37.898;2023-08-21T02:05:07;100305.31;;;13.05;74.67
71697;BME280;68167;59.120;37.898;2023-08-21T02:07:33;100319.28;;;13.17;74.80
71697;BME280;68167;59.120;37.898;2023-08-21T02:09:59;100316.63;;;13.17;74.79
71697;BME280;68167;59.120;37.898;2023-08-21T02:12:26;100307.47;;;13.13;75.13
71697;BME280;68167;59.120;37.898;2023-08-21T02:14:52;100300.25;;;13.08;75.08
71697;BME280;68167;59.120;37.898;2023-08-21T02:17:19;100264.59;;;12.82;74.98
71697;BME280;68167;59.120;37.898;2023-08-21T02:19:45;100309.88;;;13.09;75.27
71697;BME280;68167;59.120;37.898;2023-08-21T02:22:13;100296.75;;;13.08;75.06
71697;BME280;68167;59.120;37.898;2023-08-21T02:24:39;100276.94;;;12.94;75.33
71697;BME280;68167;59.120;37.898;2023-08-21T02:27:06;100296.75;;;13.08;75.52
71697;BME280;68167;59.120;37.898;2023-08-21T02:29:32;100280.69;;;12.93;75.16
71697;BME280;68167;59.120;37.898;2023-08-21T02:32:02;100309.34;;;13.12;74.95
71697;BME280;68167;59.120;37.898;2023-08-21T02:34:28;100293.28;;;12.97;74.70
71697;BME280;68167;59.120;37.898;2023-08-21T02:36:55;100312.84;;;13.13;74.98
71697;BME280;68167;59.120;37.898;2023-08-21T02:39:21;100303.69;;;13.04;75.32
71697;BME280;68167;59.120;37.898;2023-08-21T02:41:47;100312.50;;;13.04;75.11
71697;BME280;68167;59.120;37.898;2023-08-21T02:44:14;100318.38;;;13.01;75.46
71697;BME280;68167;59.120;37.898;2023-08-21T02:46:40;100256.97;;;12.59;75.03
71697;BME280;68167;59.120;37.898;2023-08-21T02:49:07;100281.91;;;12.75;75.02
71697;BME280;68167;59.120;37.898;2023-08-21T02:51:33;100307.94;;;12.95;75.17
71697;BME280;68167;59.120;37.898;2023-08-21T02:53:59;100303.13;;;12.92;75.57
71697;BME280;68167;59.120;37.898;2023-08-21T02:56:25;100302.88;;;12.93;75.17
71697;BME280;68167;59.120;37.898;2023-08-21T02:58:52;100334.16;;;13.03;75.04
71697;BME280;68167;59.120;37.898;2023-08-21T03:01:18;100330.97;;;13.06;74.68
71697;BME280;68167;59.120;37.898;2023-08-21T03:03:44;100327.47;;;13.00;75.04
71697;BME280;68167;59.120;37.898;2023-08-21T03:06:11;100288.03;;;12.70;74.78
71697;BME280;68167;59.120;37.898;2023-08-21T03:08:37;100285.03;;;12.62;75.21
71697;BME280;68167;59.120;37.898;2023-08-21T03:11:03;100300.06;;;12.73;75.03
71697;BME280;68167;59.120;37.898;2023-08-21T03:13:30;100334.09;;;12.88;75.26
71697;BME280;68167;59.120;37.898;2023-08-21T03:15:56;100301.06;;;12.62;75.36
71697;BME280;68167;59.120;37.898;2023-08-21T03:18:22;100315.00;;;12.69;74.73
71697;BME280;68167;59.120;37.898;2023-08-21T03:20:49;100290.56;;;12.50;75.57
71697;BME280;68167;59.120;37.898;2023-08-21T03:23:15;100330.53;;;12.72;74.87
71697;BME280;68167;59.120;37.898;2023-08-21T03:25:42;100318.69;;;12.63;74.99
71697;BME280;68167;59.120;37.898;2023-08-21T03:28:08;100327.25;;;12.65;75.16
71697;BME280;68167;59.120;37.898;2023-08-21T03:30:35;100301.22;;;12.45;75.50
71697;BME280;68167;59.120;37.898;2023-08-21T03:33:01;100210.56;;;11.86;75.70
71697;BME280;68167;59.120;37.898;2023-08-21T03:35:27;100333.66;;;12.64;75.88
71697;BME280;68167;59.120;37.898;2023-08-21T03:37:54;100340.63;;;12.65;76.07
71697;BME280;68167;59.120;37.898;2023-08-21T03:40:20;100326.97;;;12.61;75.93
71697;BME280;68167;59.120;37.898;2023-08-21T03:42:49;100331.84;;;12.69;75.30
71697;BME280;68167;59.120;37.898;2023-08-21T03:45:15;100293.50;;;12.48;75.78
71697;BME280;68167;59.120;37.898;2023-08-21T03:47:42;100325.44;;;12.70;75.99
71697;BME280;68167;59.120;37.898;2023-08-21T03:50:15;100305.63;;;12.66;75.47
71697;BME280;68167;59.120;37.898;2023-08-21T03:52:41;100294.13;;;12.61;75.70
71697;BME280;68167;59.120;37.898;2023-08-21T03:55:08;100286.34;;;12.59;75.68
71697;BME280;68167;59.120;37.898;2023-08-21T03:57:34;100333.59;;;12.91;75.25
71697;BME280;68167;59.120;37.898;2023-08-21T04:00:01;100300.63;;;12.75;75.41
71697;BME280;68167;59.120;37.898;2023-08-21T04:02:30;100321.28;;;12.90;75.49
71697;BME280;68167;59.120;37.898;2023-08-21T04:04:56;100300.38;;;12.81;75.45
71697;BME280;68167;59.120;37.898;2023-08-21T04:07:23;100323.22;;;12.99;75.28
71697;BME280;68167;59.120;37.898;2023-08-21T04:09:49;100328.56;;;13.04;75.53
71697;BME280;68167;59.120;37.898;2023-08-21T04:12:15;100261.56;;;12.69;75.41
71697;BME280;68167;59.120;37.898;2023-08-21T04:14:41;100294.34;;;12.96;75.50
71697;BME280;68167;59.120;37.898;2023-08-21T04:17:08;100332.69;;;13.22;75.51
71697;BME280;68167;59.120;37.898;2023-08-21T04:19:34;100327.06;;;13.18;75.02
71697;BME280;68167;59.120;37.898;2023-08-21T04:22:02;100325.47;;;13.23;75.22
71697;BME280;68167;59.120;37.898;2023-08-21T04:24:29;100317.19;;;13.24;75.27
71697;BME280;68167;59.120;37.898;2023-08-21T04:26:55;100333.56;;;13.38;75.23
71697;BME280;68167;59.120;37.898;2023-08-21T04:29:21;100315.09;;;13.36;74.57
71697;BME280;68167;59.120;37.898;2023-08-21T04:31:48;100321.81;;;13.39;74.43
71697;BME280;68167;59.120;37.898;2023-08-21T04:34:15;100318.31;;;13.38;74.44
71697;BME280;68167;59.120;37.898;2023-08-21T04:36:41;100337.66;;;13.56;74.56
71697;BME280;68167;59.120;37.898;2023-08-21T04:39:07;100329.91;;;13.59;74.63
71697;BME280;68167;59.120;37.898;2023-08-21T04:41:35;100288.66;;;13.45;73.91
71697;BME280;68167;59.120;37.898;2023-08-21T04:44:01;100316.53;;;13.64;73.92
71697;BME280;68167;59.120;37.898;2023-08-21T04:46:29;100328.31;;;13.73;73.67
71697;BME280;68167;59.120;37.898;2023-08-21T04:48:55;100330.19;;;13.78;73.48
71697;BME280;68167;59.120;37.898;2023-08-21T04:51:22;100332.06;;;13.77;73.43
71697;BME280;68167;59.120;37.898;2023-08-21T04:53:48;100318.41;;;13.74;73.41
71697;BME280;68167;59.120;37.898;2023-08-21T04:56:18;100320.31;;;13.78;73.33
71697;BME280;68167;59.120;37.898;2023-08-21T04:58:44;100289.78;;;13.64;73.26
71697;BME280;68167;59.120;37.898;2023-08-21T05:01:11;100235.41;;;13.33;73.35
71697;BME280;68167;59.120;37.898;2023-08-21T05:03:43;100323.00;;;13.89;72.98
71697;BME280;68167;59.120;37.898;2023-08-21T05:06:09;100313.38;;;13.88;73.05
71697;BME280;68167;59.120;37.898;2023-08-21T05:08:35;100321.41;;;13.93;73.08
71697;BME280;68167;59.120;37.898;2023-08-21T05:11:04;100283.91;;;13.77;73.01
71697;BME280;68167;59.120;37.898;2023-08-21T05:13:33;100318.47;;;14.04;73.23
71697;BME280;68167;59.120;37.898;2023-08-21T05:16:01;100229.31;;;13.48;73.10
71697;BME280;68167;59.120;37.898;2023-08-21T05:18:32;100329.22;;;14.20;72.95
71697;BME280;68167;59.120;37.898;2023-08-21T05:20:58;100294.13;;;14.11;72.95
71697;BME280;68167;59.120;37.898;2023-08-21T05:23:25;100316.59;;;14.30;72.76
71697;BME280;68167;59.120;37.898;2023-08-21T05:25:58;100294.41;;;14.25;72.24
71697;BME280;68167;59.120;37.898;2023-08-21T05:28:24;100256.38;;;14.12;72.12
71697;BME280;68167;59.120;37.898;2023-08-21T05:30:50;100314.47;;;14.53;71.89
71697;BME280;68167;59.120;37.898;2023-08-21T05:33:19;100321.44;;;14.69;71.79
71697;BME280;68167;59.120;37.898;2023-08-21T05:35:48;100296.78;;;14.62;71.37
71697;BME280;68167;59.120;37.898;2023-08-21T05:38:14;100310.44;;;14.80;71.23
71697;BME280;68167;59.120;37.898;2023-08-21T05:40:41;100322.47;;;14.88;71.37
71697;BME280;68167;59.120;37.898;2023-08-21T05:43:08;100295.16;;;14.81;71.11
71697;BME280;68167;59.120;37.898;2023-08-21T05:45:36;100285.22;;;14.81;70.90
71697;BME280;68167;59.120;37.898;2023-08-21T05:48:03;100292.13;;;14.98;70.68
71697;BME280;68167;59.120;37.898;2023-08-21T05:50:30;100256.56;;;14.77;70.75
71697;BME280;68167;59.120;37.898;2023-08-21T05:52:56;100325.56;;;15.26;70.30
71697;BME280;68167;59.120;37.898;2023-08-21T05:55:25;100289.69;;;15.11;70.29
71697;BME280;68167;59.120;37.898;2023-08-21T05:57:51;100322.56;;;15.42;69.81
71697;BME280;68167;59.120;37.898;2023-08-21T06:00:19;100281.56;;;15.27;69.64
71697;BME280;68167;59.120;37.898;2023-08-21T06:02:45;100286.63;;;15.38;69.44
71697;BME280;68167;59.120;37.898;2023-08-21T06:05:28;100274.03;;;15.34;68.92
71697;BME280;68167;59.120;37.898;2023-08-21T06:07:55;100305.03;;;15.60;68.53
71697;BME280;68167;59.120;37.898;2023-08-21T06:10:21;100321.84;;;15.76;68.42
71697;BME280;68167;59.120;37.898;2023-08-21T06:12:48;100293.75;;;15.63;67.97
71697;BME280;68167;59.120;37.898;2023-08-21T06:15:14;100257.59;;;15.45;68.03
71697;BME280;68167;59.120;37.898;2023-08-21T06:17:41;100302.19;;;15.86;68.14
71697;BME280;68167;59.120;37.898;2023-08-21T06:20:08;100290.41;;;15.81;68.03
71697;BME280;68167;59.120;37.898;2023-08-21T06:22:39;100313.59;;;16.06;67.48
71697;BME280;68167;59.120;37.898;2023-08-21T06:25:08;100320.78;;;16.16;66.76
71697;BME280;68167;59.120;37.898;2023-08-21T06:27:34;100311.34;;;16.24;66.49
71697;BME280;68167;59.120;37.898;2023-08-21T06:30:02;100277.84;;;16.11;66.59
71697;BME280;68167;59.120;37.898;2023-08-21T06:32:31;100317.59;;;16.43;66.80
71697;BME280;68167;59.120;37.898;2023-08-21T06:34:57;100287.38;;;16.27;67.13
71697;BME280;68167;59.120;37.898;2023-08-21T06:37:24;100284.88;;;16.36;67.35
71697;BME280;68167;59.120;37.898;2023-08-21T06:39:52;100250.94;;;16.16;67.10
71697;BME280;68167;59.120;37.898;2023-08-21T06:42:18;100308.94;;;16.51;66.73
71697;BME280;68167;59.120;37.898;2023-08-21T06:44:49;100283.78;;;16.37;66.19
71697;BME280;68167;59.120;37.898;2023-08-21T06:47:16;100302.41;;;16.57;66.20
71697;BME280;68167;59.120;37.898;2023-08-21T06:49:43;100302.09;;;16.64;66.15
71697;BME280;68167;59.120;37.898;2023-08-21T06:52:09;100267.28;;;16.48;66.09
71697;BME280;68167;59.120;37.898;2023-08-21T06:54:35;100319.66;;;16.85;65.91
71697;BME280;68167;59.120;37.898;2023-08-21T06:57:02;100240.38;;;16.54;64.08
71697;BME280;68167;59.120;37.898;2023-08-21T06:59:28;100303.38;;;16.95;64.19
71697;BME280;68167;59.120;37.898;2023-08-21T07:01:55;100269.66;;;16.84;63.77
71697;BME280;68167;59.120;37.898;2023-08-21T07:04:21;100303.44;;;17.14;63.30
71697;BME280;68167;59.120;37.898;2023-08-21T07:06:47;100302.88;;;17.17;63.24
71697;BME280;68167;59.120;37.898;2023-08-21T07:09:14;100249.38;;;16.92;63.79
71697;BME280;68167;59.120;37.898;2023-08-21T07:11:40;100291.69;;;17.29;64.00
71697;BME280;68167;59.120;37.898;2023-08-21T07:14:06;100297.81;;;17.34;63.62
71697;BME280;68167;59.120;37.898;2023-08-21T07:16:34;100267.84;;;17.22;63.19
71697;BME280;68167;59.120;37.898;2023-08-21T07:19:00;100293.41;;;17.43;63.55
71697;BME280;68167;59.120;37.898;2023-08-21T07:21:28;100200.38;;;16.95;62.99
71697;BME280;68167;59.120;37.898;2023-08-21T07:23:55;100278.28;;;17.48;62.77
71697;BME280;68167;59.120;37.898;2023-08-21T07:26:21;100262.34;;;17.51;62.89
71697;BME280;68167;59.120;37.898;2023-08-21T07:28:47;100266.19;;;17.64;63.00
71697;BME280;68167;59.120;37.898;2023-08-21T07:31:14;100261.53;;;17.69;62.23
71697;BME280;68167;59.120;37.898;2023-08-21T07:33:40;100276.31;;;17.91;62.97
71697;BME280;68167;59.120;37.898;2023-08-21T07:36:07;100280.66;;;18.05;62.10
71697;BME280;68167;59.120;37.898;2023-08-21T07:38:33;100286.09;;;18.19;61.19
71697;BME280;68167;59.120;37.898;2023-08-21T07:41:07;100247.53;;;18.05;60.85
71697;BME280;68167;59.120;37.898;2023-08-21T07:43:37;100280.66;;;18.38;60.40
71697;BME280;68167;59.120;37.898;2023-08-21T07:46:04;100291.47;;;18.52;59.87
71697;BME280;68167;59.120;37.898;2023-08-21T07:48:31;100297.22;;;18.64;59.13
71697;BME280;68167;59.120;37.898;2023-08-21T07:50:58;100276.34;;;18.69;58.23
71697;BME280;68167;59.120;37.898;2023-08-21T07:53:25;100257.06;;;18.76;57.85
71697;BME280;68167;59.120;37.898;2023-08-21T07:55:52;100229.50;;;18.79;57.85
71697;BME280;68167;59.120;37.898;2023-08-21T07:58:19;100293.72;;;19.32;57.33
71697;BME280;68167;59.120;37.898;2023-08-21T08:00:46;100235.63;;;19.21;57.12
71697;BME280;68167;59.120;37.898;2023-08-21T08:03:12;100281.78;;;19.60;56.98
71697;BME280;68167;59.120;37.898;2023-08-21T08:05:41;100262.81;;;19.74;56.86
71697;BME280;68167;59.120;37.898;2023-08-21T08:08:10;100288.75;;;20.20;56.37
71697;BME280;68167;59.120;37.898;2023-08-21T08:10:38;100285.97;;;20.33;54.93
71697;BME280;68167;59.120;37.898;2023-08-21T08:13:06;100222.06;;;20.06;53.89
71697;BME280;68167;59.120;37.898;2023-08-21T08:15:33;100255.13;;;20.34;55.12
71697;BME280;68167;59.120;37.898;2023-08-21T08:18:02;100281.22;;;20.61;54.04
71697;BME280;68167;59.120;37.898;2023-08-21T08:20:30;100265.00;;;20.61;54.77
71697;BME280;68167;59.120;37.898;2023-08-21T08:22:56;100267.13;;;20.73;54.60
71697;BME280;68167;59.120;37.898;2023-08-21T08:25:23;100273.81;;;20.76;54.11
71697;BME280;68167;59.120;37.898;2023-08-21T08:27:49;100263.75;;;20.67;53.73
71697;BME280;68167;59.120;37.898;2023-08-21T08:30:16;100226.59;;;20.51;53.80
71697;BME280;68167;59.120;37.898;2023-08-21T08:32:42;100207.00;;;20.45;54.22
71697;BME280;68167;59.120;37.898;2023-08-21T08:35:15;100233.84;;;20.81;52.65
71697;BME280;68167;59.120;37.898;2023-08-21T08:37:42;100245.63;;;20.85;52.59
71697;BME280;68167;59.120;37.898;2023-08-21T08:40:10;100261.56;;;20.87;53.03
71697;BME280;68167;59.120;37.898;2023-08-21T08:42:38;100236.56;;;20.81;52.77
71697;BME280;68167;59.120;37.898;2023-08-21T08:45:05;100237.00;;;20.66;53.06
71697;BME280;68167;59.120;37.898;2023-08-21T08:47:35;100244.00;;;20.67;52.26
71697;BME280;68167;59.120;37.898;2023-08-21T08:50:08;100209.88;;;20.49;52.70
71697;BME280;68167;59.120;37.898;2023-08-21T08:52:38;100236.38;;;20.69;51.68
71697;BME280;68167;59.120;37.898;2023-08-21T08:55:06;100232.91;;;20.77;51.97
71697;BME280;68167;59.120;37.898;2023-08-21T08:57:34;100225.59;;;20.86;51.74
71697;BME280;68167;59.120;37.898;2023-08-21T09:00:05;100189.28;;;20.70;51.34
71697;BME280;68167;59.120;37.898;2023-08-21T09:02:36;100209.50;;;20.81;51.69
71697;BME280;68167;59.120;37.898;2023-08-21T09:05:04;100182.41;;;20.64;51.87
71697;BME280;68167;59.120;37.898;2023-08-21T09:07:33;100209.97;;;20.83;51.63
71697;BME280;68167;59.120;37.898;2023-08-21T09:10:00;100223.56;;;21.00;51.32
71697;BME280;68167;59.120;37.898;2023-08-21T09:12:27;100168.41;;;20.70;50.80
71697;BME280;68167;59.120;37.898;2023-08-21T09:14:53;100213.06;;;21.16;50.74
71697;BME280;68167;59.120;37.898;2023-08-21T09:17:20;100219.03;;;21.27;49.17
71697;BME280;68167;59.120;37.898;2023-08-21T09:19:46;100185.81;;;21.04;49.11
71697;BME280;68167;59.120;37.898;2023-08-21T09:22:15;100162.88;;;20.93;48.12
71697;BME280;68167;59.120;37.898;2023-08-21T09:25:03;100213.44;;;21.23;49.08
71697;BME280;68167;59.120;37.898;2023-08-21T09:27:34;100203.88;;;21.26;49.05
71697;BME280;68167;59.120;37.898;2023-08-21T09:30:09;100182.53;;;21.24;49.72
71697;BME280;68167;59.120;37.898;2023-08-21T09:32:58;100209.28;;;21.52;49.38
71697;BME280;68167;59.120;37.898;2023-08-21T09:35:27;100190.81;;;21.45;47.32
71697;BME280;68167;59.120;37.898;2023-08-21T09:37:53;100203.06;;;21.60;47.50
71697;BME280;68167;59.120;37.898;2023-08-21T09:40:21;100190.47;;;21.64;46.23
71697;BME280;68167;59.120;37.898;2023-08-21T09:42:55;100193.19;;;21.73;45.48
71697;BME280;68167;59.120;37.898;2023-08-21T09:45:23;100186.16;;;21.80;45.28
71697;BME280;68167;59.120;37.898;2023-08-21T09:47:51;100175.31;;;21.80;44.98
71697;BME280;68167;59.120;37.898;2023-08-21T09:50:19;100198.75;;;21.93;44.91
71697;BME280;68167;59.120;37.898;2023-08-21T09:52:46;100190.94;;;21.92;44.51
71697;BME280;68167;59.120;37.898;2023-08-21T09:55:14;100189.63;;;21.98;43.93
71697;BME280;68167;59.120;37.898;2023-08-21T09:57:41;100143.94;;;21.70;43.73
71697;BME280;68167;59.120;37.898;2023-08-21T10:00:08;100170.03;;;21.92;45.27
71697;BME280;68167;59.120;37.898;2023-08-21T10:02:43;100188.06;;;22.06;43.51
71697;BME280;68167;59.120;37.898;2023-08-21T10:05:16;100176.75;;;22.04;41.91
71697;BME280;68167;59.120;37.898;2023-08-21T10:07:46;100180.06;;;22.00;42.05
71697;BME280;68167;59.120;37.898;2023-08-21T10:10:14;100153.31;;;21.82;41.75
71697;BME280;68167;59.120;37.898;2023-08-21T10:12:40;100107.63;;;21.46;42.13
71697;BME280;68167;59.120;37.898;2023-08-21T10:15:07;100172.44;;;21.85;42.41
71697;BME280;68167;59.120;37.898;2023-08-21T10:17:37;100169.72;;;21.85;42.32
71697;BME280;68167;59.120;37.898;2023-08-21T10:20:08;100140.28;;;21.58;42.52
71697;BME280;68167;59.120;37.898;2023-08-21T10:22:39;100164.97;;;21.65;41.84
71697;BME280;68167;59.120;37.898;2023-08-21T10:25:22;100169.75;;;21.77;43.28
71697;BME280;68167;59.120;37.898;2023-08-21T10:27:54;100168.44;;;21.91;42.35
71697;BME280;68167;59.120;37.898;2023-08-21T10:30:23;100160.16;;;22.05;43.29
71697;BME280;68167;59.120;37.898;2023-08-21T10:32:51;100129.84;;;21.94;42.43
71697;BME280;68167;59.120;37.898;2023-08-21T10:35:29;100154.03;;;22.17;42.32
71697;BME280;68167;59.120;37.898;2023-08-21T10:38:07;100149.88;;;22.19;42.46
71697;BME280;68167;59.120;37.898;2023-08-21T10:40:34;100149.97;;;22.31;41.97
71697;BME280;68167;59.120;37.898;2023-08-21T10:43:01;100130.19;;;22.31;41.60
71697;BME280;68167;59.120;37.898;2023-08-21T10:45:29;100127.06;;;22.50;41.88
71697;BME280;68167;59.120;37.898;2023-08-21T10:47:58;100105.13;;;22.34;41.93
71697;BME280;68167;59.120;37.898;2023-08-21T10:50:25;100126.41;;;22.53;41.93
71697;BME280;68167;59.120;37.898;2023-08-21T10:52:53;100118.22;;;22.32;42.41
71697;BME280;68167;59.120;37.898;2023-08-21T10:55:20;100095.91;;;21.88;42.13
71697;BME280;68167;59.120;37.898;2023-08-21T10:57:48;100130.03;;;21.81;42.29
71697;BME280;68167;59.120;37.898;2023-08-21T11:00:17;100141.69;;;21.64;42.84
71697;BME280;68167;59.120;37.898;2023-08-21T11:02:46;100066.25;;;21.28;43.67
71697;BME280;68167;59.120;37.898;2023-08-21T11:05:14;100093.69;;;21.73;43.26
71697;BME280;68167;59.120;37.898;2023-08-21T11:07:48;100112.66;;;22.28;42.54
71697;BME280;68167;59.120;37.898;2023-08-21T11:10:22;100098.63;;;22.26;41.96
71697;BME280;68167;59.120;37.898;2023-08-21T11:12:52;100093.53;;;22.25;41.96
71697;BME280;68167;59.120;37.898;2023-08-21T11:15:19;100112.94;;;22.35;42.53
71697;BME280;68167;59.120;37.898;2023-08-21T11:18:00;100117.78;;;22.21;41.42
71697;BME280;68167;59.120;37.898;2023-08-21T11:20:34;100056.09;;;21.63;41.87
71697;BME280;68167;59.120;37.898;2023-08-21T11:23:06;100116.56;;;22.10;41.20
71697;BME280;68167;59.120;37.898;2023-08-21T11:25:34;100123.78;;;22.35;41.42
71697;BME280;68167;59.120;37.898;2023-08-21T11:28:01;100111.53;;;22.59;40.37
71697;BME280;68167;59.120;37.898;2023-08-21T11:30:30;100107.75;;;23.02;40.50
71697;BME280;68167;59.120;37.898;2023-08-21T11:33:08;100069.78;;;23.14;40.25
71697;BME280;68167;59.120;37.898;2023-08-21T11:35:35;100075.97;;;23.47;39.56
71697;BME280;68167;59.120;37.898;2023-08-21T11:38:03;100109.31;;;23.89;38.92
71697;BME280;68167;59.120;37.898;2023-08-21T11:40:30;100111.59;;;24.00;38.42
71697;BME280;68167;59.120;37.898;2023-08-21T11:43:03;100068.03;;;23.75;37.70
71697;BME280;68167;59.120;37.898;2023-08-21T11:45:31;100106.94;;;23.88;38.93
71697;BME280;68167;59.120;37.898;2023-08-21T11:47:58;100103.63;;;23.82;37.42
71697;BME280;68167;59.120;37.898;2023-08-21T11:50:25;100096.47;;;23.78;37.81
71697;BME280;68167;59.120;37.898;2023-08-21T11:52:52;100066.19;;;23.55;37.42
71697;BME280;68167;59.120;37.898;2023-08-21T11:55:19;100073.78;;;23.61;36.46
71697;BME280;68167;59.120;37.898;2023-08-21T11:57:50;100080.34;;;23.60;36.69
71697;BME280;68167;59.120;37.898;2023-08-21T12:00:25;100075.25;;;23.59;37.26
71697;BME280;68167;59.120;37.898;2023-08-21T12:05:26;100037.13;;;23.35;35.42
71697;BME280;68167;59.120;37.898;2023-08-21T12:08:00;100062.97;;;23.53;36.27
71697;BME280;68167;59.120;37.898;2023-08-21T12:10:33;100048.13;;;23.50;35.96
71697;BME280;68167;59.120;37.898;2023-08-21T12:13:00;100060.53;;;23.60;35.95
71697;BME280;68167;59.120;37.898;2023-08-21T12:15:26;100063.94;;;23.69;36.01
71697;BME280;68167;59.120;37.898;2023-08-21T12:17:53;100070.88;;;23.79;35.17
71697;BME280;68167;59.120;37.898;2023-08-21T12:20:19;100026.22;;;23.55;35.66
71697;BME280;68167;59.120;37.898;2023-08-21T12:22:45;100024.09;;;23.40;35.59
71697;BME280;68167;59.120;37.898;2023-08-21T12:25:13;100033.16;;;23.44;35.76
71697;BME280;68167;59.120;37.898;2023-08-21T12:27:39;100045.41;;;23.50;35.56
71697;BME280;68167;59.120;37.898;2023-08-21T12:30:06;100033.06;;;23.41;35.41
71697;BME280;68167;59.120;37.898;2023-08-21T12:32:32;100006.88;;;23.24;34.99
71697;BME280;68167;59.120;37.898;2023-08-21T12:34:59;100018.44;;;23.33;35.02
71697;BME280;68167;59.120;37.898;2023-08-21T12:37:25;100046.22;;;23.39;34.51
71697;BME280;68167;59.120;37.898;2023-08-21T12:39:53;100016.31;;;23.06;35.00
71697;BME280;68167;59.120;37.898;2023-08-21T12:42:20;100031.28;;;23.12;33.83
71697;BME280;68167;59.120;37.898;2023-08-21T12:44:46;100039.34;;;23.20;33.99
71697;BME280;68167;59.120;37.898;2023-08-21T12:47:13;100043.56;;;23.30;33.75